createdAt,value
2024-03-01T00:00:41.826Z,95.24
2024-03-01T00:01:38.541Z,95.82
2024-03-01T00:02:35.363Z,95.09
2024-03-01T00:03:32.302Z,95.39
2024-03-01T00:04:29.122Z,95.53
2024-03-01T00:05:25.824Z,94.86
2024-03-01T00:06:22.477Z,95.03
2024-03-01T00:07:19.138Z,95.61
2024-03-01T00:08:15.796Z,95.56
2024-03-01T00:09:12.438Z,95.32
2024-03-01T00:10:10.018Z,94.49
2024-03-01T00:11:06.976Z,94.71
2024-03-01T00:12:03.858Z,95.94
2024-03-01T00:13:00.527Z,96.27
2024-03-01T00:13:57.128Z,95.95
2024-03-01T00:14:53.999Z,95.84
2024-03-01T00:15:50.672Z,95.80
2024-03-01T00:16:47.372Z,95.49
2024-03-01T00:17:44.093Z,95.93
2024-03-01T00:18:40.667Z,95.66
2024-03-01T00:19:37.277Z,94.95
2024-03-01T00:20:33.928Z,94.76
2024-03-01T00:21:30.576Z,93.49
2024-03-01T00:22:27.636Z,92.84
2024-03-01T00:23:24.467Z,92.38
2024-03-01T00:24:21.084Z,92.07
2024-03-01T00:25:17.958Z,91.32
2024-03-01T00:26:15.202Z,91.83
2024-03-01T00:27:11.885Z,91.94
2024-03-01T00:28:08.528Z,92.27
2024-03-01T00:29:05.126Z,92.33
2024-03-01T00:30:03.934Z,91.73
2024-03-01T00:31:00.545Z,91.54
2024-03-01T00:31:57.196Z,91.63
2024-03-01T00:32:53.868Z,91.67
2024-03-01T00:33:50.584Z,91.97
2024-03-01T00:34:47.319Z,91.86
2024-03-01T00:35:45.272Z,91.70
2024-03-01T00:36:41.930Z,91.15
2024-03-01T00:37:38.647Z,91.50
2024-03-01T00:38:35.369Z,91.41
2024-03-01T00:39:32.245Z,90.21
2024-03-01T00:40:28.991Z,89.87
2024-03-01T00:41:26.131Z,90.03
2024-03-01T00:42:22.752Z,90.27
2024-03-01T00:43:20.113Z,90.28
2024-03-01T00:44:16.817Z,90.75
2024-03-01T00:45:13.512Z,90.32
2024-03-01T00:46:10.216Z,90.29
2024-03-01T00:47:07.627Z,89.61
2024-03-01T00:48:14.887Z,89.50
2024-03-01T00:49:12.082Z,89.15
2024-03-01T00:50:09.437Z,88.90
2024-03-01T00:51:06.466Z,89.27
2024-03-01T00:52:03.385Z,89.41
2024-03-01T00:53:00.345Z,89.09
2024-03-01T00:53:57.045Z,89.12
2024-03-01T00:54:53.794Z,89.41
2024-03-01T00:55:50.980Z,89.13
2024-03-01T00:56:47.740Z,88.34
2024-03-01T00:57:44.942Z,88.68
2024-03-01T00:58:41.637Z,89.59
2024-03-01T00:59:38.556Z,89.46
2024-03-01T01:00:35.264Z,89.48
2024-03-01T01:01:31.974Z,89.08
2024-03-01T01:02:39.893Z,88.85
2024-03-01T01:03:38.799Z,88.21
2024-03-01T01:04:35.932Z,88.23
2024-03-01T01:05:33.053Z,87.81
2024-03-01T01:06:29.796Z,87.67
2024-03-01T01:07:26.517Z,86.56
2024-03-01T01:08:25.571Z,86.25
2024-03-01T01:09:22.214Z,85.98
2024-03-01T01:10:19.065Z,85.95
2024-03-01T01:11:15.780Z,85.71
2024-03-01T01:12:12.475Z,85.68
2024-03-01T01:13:09.215Z,86.55
2024-03-01T01:14:05.975Z,85.74
2024-03-01T01:15:02.816Z,85.84
2024-03-01T01:15:59.631Z,85.04
2024-03-01T01:16:56.429Z,85.12
2024-03-01T01:17:53.113Z,85.37
2024-03-01T01:18:50.004Z,86.11
2024-03-01T01:19:46.775Z,85.76
2024-03-01T01:20:44.052Z,85.51
2024-03-01T01:21:40.812Z,85.56
2024-03-01T01:22:37.440Z,84.61
2024-03-01T01:23:34.138Z,84.01
2024-03-01T01:24:30.865Z,84.08
2024-03-01T01:25:27.659Z,84.09
2024-03-01T01:26:24.385Z,84.87
2024-03-01T01:27:21.059Z,84.44
2024-03-01T01:28:17.859Z,84.03
2024-03-01T01:29:14.834Z,83.92
2024-03-01T01:30:12.241Z,83.26
2024-03-01T01:31:09.577Z,83.59
2024-03-01T01:32:06.567Z,84.01
2024-03-01T01:33:03.280Z,83.46
2024-03-01T01:34:00.114Z,84.39
2024-03-01T01:34:56.868Z,85.11
2024-03-01T01:35:54.039Z,85.24
2024-03-01T01:36:50.760Z,84.75
2024-03-01T01:37:47.415Z,84.62
2024-03-01T01:38:44.208Z,85.20
2024-03-01T01:39:40.867Z,85.53
2024-03-01T01:40:37.653Z,84.67
2024-03-01T01:41:36.750Z,84.65
2024-03-01T01:42:33.604Z,84.51
2024-03-01T01:43:30.721Z,84.64
2024-03-01T01:44:27.443Z,85.19
2024-03-01T01:45:24.092Z,85.09
2024-03-01T01:46:20.847Z,85.51
2024-03-01T01:47:18.306Z,84.17
2024-03-01T01:48:15.359Z,83.40
2024-03-01T01:49:12.241Z,83.94
2024-03-01T01:50:10.492Z,84.00
2024-03-01T01:51:08.158Z,83.69
2024-03-01T01:52:04.977Z,83.93
2024-03-01T01:53:12.870Z,83.55
2024-03-01T01:54:13.704Z,83.96
2024-03-01T01:55:12.439Z,84.73
2024-03-01T01:56:09.187Z,84.15
2024-03-01T01:57:06.122Z,83.96
2024-03-01T01:58:03.142Z,83.46
2024-03-01T01:58:59.875Z,84.48
2024-03-01T01:59:58.666Z,84.40
2024-03-01T02:00:56.162Z,84.46
2024-03-01T02:01:53.313Z,84.44
2024-03-01T02:02:52.119Z,83.52
2024-03-01T02:03:49.190Z,84.06
2024-03-01T02:04:46.255Z,83.77
2024-03-01T02:05:42.995Z,83.43
2024-03-01T02:06:39.728Z,83.45
2024-03-01T02:07:38.102Z,83.35
2024-03-01T02:08:37.041Z,83.35
2024-03-01T02:09:33.795Z,83.42
2024-03-01T02:10:30.732Z,83.47
2024-03-01T02:11:27.577Z,83.68
2024-03-01T02:12:24.399Z,83.58
2024-03-01T02:13:24.089Z,83.91
2024-03-01T02:14:21.627Z,83.22
2024-03-01T02:15:18.427Z,83.00
2024-03-01T02:16:15.246Z,83.16
2024-03-01T02:17:11.994Z,83.26
2024-03-01T02:18:08.831Z,82.98
2024-03-01T02:19:12.153Z,83.27
2024-03-01T02:20:09.862Z,83.96
2024-03-01T02:21:14.655Z,83.99
2024-03-01T02:22:18.696Z,83.66
2024-03-01T02:23:25.565Z,83.83
2024-03-01T02:24:22.953Z,84.04
2024-03-01T02:25:19.648Z,84.13
2024-03-01T02:26:16.396Z,84.23
2024-03-01T02:27:13.117Z,83.09
2024-03-01T02:28:09.999Z,83.41
2024-03-01T02:29:06.647Z,83.72
2024-03-01T02:30:04.275Z,84.34
2024-03-01T02:31:01.066Z,84.14
2024-03-01T02:31:57.721Z,83.84
2024-03-01T02:32:54.405Z,84.48
2024-03-01T02:33:51.143Z,84.31
2024-03-01T02:34:47.878Z,84.17
2024-03-01T02:35:44.603Z,84.10
2024-03-01T02:36:41.519Z,84.78
2024-03-01T02:37:38.616Z,84.90
2024-03-01T02:38:35.587Z,85.24
2024-03-01T02:39:32.261Z,85.05
2024-03-01T02:40:29.213Z,84.93
2024-03-01T02:41:25.992Z,85.16
2024-03-01T02:42:22.836Z,85.49
2024-03-01T02:43:19.532Z,85.77
2024-03-01T02:44:16.217Z,86.07
2024-03-01T02:45:12.957Z,86.54
2024-03-01T02:46:09.646Z,86.26
2024-03-01T02:47:06.509Z,86.91
2024-03-01T02:48:04.374Z,87.01
2024-03-01T02:49:01.104Z,86.32
2024-03-01T02:49:57.832Z,86.25
2024-03-01T02:50:54.455Z,86.69
2024-03-01T02:51:51.180Z,86.98
2024-03-01T02:52:47.809Z,86.89
2024-03-01T02:53:47.176Z,87.50
2024-03-01T02:54:43.777Z,87.56
2024-03-01T02:55:40.484Z,87.96
2024-03-01T02:56:37.279Z,88.03
2024-03-01T02:57:35.037Z,87.91
2024-03-01T02:58:31.911Z,88.37
2024-03-01T02:59:28.667Z,88.57
2024-03-01T03:00:25.764Z,88.24
2024-03-01T03:01:24.738Z,88.01
2024-03-01T03:02:21.629Z,87.98
2024-03-01T03:03:18.402Z,88.43
2024-03-01T03:04:15.129Z,88.90
2024-03-01T03:05:12.274Z,88.36
2024-03-01T03:06:08.987Z,89.26
2024-03-01T03:07:10.460Z,89.06
2024-03-01T03:08:08.109Z,89.31
2024-03-01T03:09:10.651Z,89.60
2024-03-01T03:10:08.294Z,90.16
2024-03-01T03:11:05.312Z,89.93
2024-03-01T03:12:03.001Z,89.86
2024-03-01T03:13:01.459Z,89.28
2024-03-01T03:13:58.248Z,90.11
2024-03-01T03:14:54.858Z,90.82
2024-03-01T03:15:51.650Z,90.64
2024-03-01T03:16:52.035Z,90.63
2024-03-01T03:17:48.910Z,90.60
2024-03-01T03:18:45.545Z,91.13
2024-03-01T03:19:43.569Z,91.70
2024-03-01T03:20:40.213Z,92.34
2024-03-01T03:21:37.197Z,91.94
2024-03-01T03:22:33.869Z,92.16
2024-03-01T03:23:30.586Z,92.38
2024-03-01T03:24:27.271Z,92.27
2024-03-01T03:25:24.546Z,92.17
2024-03-01T03:26:21.260Z,91.88
2024-03-01T03:27:17.879Z,91.33
2024-03-01T03:28:16.304Z,90.89
2024-03-01T03:29:13.174Z,91.45
2024-03-01T03:30:10.277Z,92.41
2024-03-01T03:31:07.078Z,92.14
2024-03-01T03:32:06.820Z,91.70
2024-03-01T03:33:04.988Z,91.24
2024-03-01T03:34:01.847Z,90.64
2024-03-01T03:34:58.521Z,90.53
2024-03-01T03:35:55.183Z,90.70
2024-03-01T03:36:51.862Z,90.48
2024-03-01T03:37:48.625Z,91.06
2024-03-01T03:38:45.278Z,91.36
2024-03-01T03:39:41.966Z,92.03
2024-03-01T03:40:38.978Z,91.65
2024-03-01T03:41:36.127Z,91.86
2024-03-01T03:42:32.722Z,92.34
2024-03-01T03:43:29.427Z,92.24
2024-03-01T03:44:26.140Z,92.55
2024-03-01T03:45:22.805Z,92.45
2024-03-01T03:46:19.952Z,92.11
2024-03-01T03:47:16.583Z,91.58
2024-03-01T03:48:13.185Z,91.21
2024-03-01T03:49:12.108Z,91.94
2024-03-01T03:50:09.649Z,92.45
2024-03-01T03:51:06.314Z,92.54
2024-03-01T03:52:03.311Z,92.74
2024-03-01T03:52:59.985Z,92.54
2024-03-01T03:53:57.559Z,92.28
2024-03-01T03:54:54.227Z,91.42
2024-03-01T03:55:50.877Z,92.28
2024-03-01T03:56:47.454Z,92.37
2024-03-01T03:57:44.949Z,92.05
2024-03-01T03:58:41.536Z,91.42
2024-03-01T03:59:38.297Z,91.84
2024-03-01T04:00:34.950Z,92.25
2024-03-01T04:01:31.635Z,92.57
2024-03-01T04:02:28.352Z,92.28
2024-03-01T04:03:25.123Z,91.49
2024-03-01T04:04:21.812Z,92.43
2024-03-01T04:05:18.433Z,93.00
2024-03-01T04:06:15.677Z,92.85
2024-03-01T04:07:12.294Z,92.87
2024-03-01T04:08:08.946Z,92.75
2024-03-01T04:09:05.528Z,93.04
2024-03-01T04:10:02.318Z,92.99
2024-03-01T04:10:59.074Z,92.92
2024-03-01T04:11:56.832Z,92.29
2024-03-01T04:12:53.466Z,93.04
2024-03-01T04:13:50.193Z,93.32
2024-03-01T04:14:46.897Z,93.07
2024-03-01T04:15:44.521Z,93.08
2024-03-01T04:16:41.352Z,93.68
2024-03-01T04:17:38.392Z,94.10
2024-03-01T04:18:35.520Z,93.91
2024-03-01T04:19:32.594Z,93.48
2024-03-01T04:20:29.259Z,93.56
2024-03-01T04:21:26.019Z,93.79
2024-03-01T04:22:22.717Z,94.43
2024-03-01T04:23:19.396Z,95.46
2024-03-01T04:24:16.996Z,96.08
2024-03-01T04:25:13.597Z,96.54
2024-03-01T04:26:10.852Z,96.61
2024-03-01T04:27:07.672Z,96.47
2024-03-01T04:28:04.791Z,95.80
2024-03-01T04:29:01.484Z,95.89
2024-03-01T04:29:58.428Z,96.27
2024-03-01T04:30:55.832Z,96.35
2024-03-01T04:31:52.767Z,97.01
2024-03-01T04:32:49.440Z,97.30
2024-03-01T04:33:48.118Z,97.83
2024-03-01T04:34:46.013Z,97.34
2024-03-01T04:35:42.886Z,97.78
2024-03-01T04:36:40.290Z,98.28
2024-03-01T04:37:37.055Z,97.65
2024-03-01T04:38:34.069Z,96.97
2024-03-01T04:39:31.135Z,96.75
2024-03-01T04:40:27.691Z,96.49
2024-03-01T04:41:24.350Z,96.69
2024-03-01T04:42:21.094Z,98.00
2024-03-01T04:43:17.711Z,97.92
2024-03-01T04:44:14.364Z,97.35
2024-03-01T04:45:11.245Z,96.75
2024-03-01T04:46:07.949Z,96.71
2024-03-01T04:47:04.815Z,97.37
2024-03-01T04:48:01.746Z,97.95
2024-03-01T04:48:58.595Z,98.11
2024-03-01T04:49:55.404Z,97.99
2024-03-01T04:50:52.119Z,96.69
2024-03-01T04:51:48.774Z,96.51
2024-03-01T04:52:45.480Z,97.57
2024-03-01T04:53:42.487Z,97.92
2024-03-01T04:54:39.298Z,97.89
2024-03-01T04:55:36.057Z,97.61
2024-03-01T04:56:32.905Z,97.88
2024-03-01T04:57:29.582Z,98.36
2024-03-01T04:58:26.238Z,98.58
2024-03-01T04:59:22.903Z,97.97
2024-03-01T05:00:22.742Z,98.53
2024-03-01T05:01:19.623Z,98.51
2024-03-01T05:02:16.288Z,98.89
2024-03-01T05:03:13.737Z,99.01
2024-03-01T05:04:11.160Z,99.01
2024-03-01T05:05:11.802Z,98.22
2024-03-01T05:06:09.995Z,98.19
2024-03-01T05:07:06.679Z,98.62
2024-03-01T05:08:04.263Z,98.56
2024-03-01T05:09:00.999Z,98.99
2024-03-01T05:09:57.646Z,98.37
2024-03-01T05:10:54.633Z,98.12
2024-03-01T05:11:51.498Z,98.31
2024-03-01T05:12:48.563Z,98.22
2024-03-01T05:13:45.166Z,98.72
2024-03-01T05:14:42.375Z,98.75
2024-03-01T05:15:39.822Z,98.36
2024-03-01T05:16:36.643Z,98.13
2024-03-01T05:17:34.018Z,97.96
2024-03-01T05:18:30.662Z,98.29
2024-03-01T05:19:27.354Z,98.18
2024-03-01T05:20:24.108Z,98.34
2024-03-01T05:21:23.854Z,98.41
2024-03-01T05:22:20.520Z,98.98
2024-03-01T05:23:17.150Z,99.31
2024-03-01T05:24:13.746Z,99.49
2024-03-01T05:25:17.167Z,99.09
2024-03-01T05:26:14.280Z,98.68
2024-03-01T05:27:16.691Z,98.23
2024-03-01T05:28:13.244Z,97.95
2024-03-01T05:29:09.878Z,98.11
2024-03-01T05:30:09.634Z,98.50
2024-03-01T05:31:14.977Z,98.29
2024-03-01T05:32:18.008Z,97.56
2024-03-01T05:33:14.782Z,97.36
2024-03-01T05:34:11.755Z,97.36
2024-03-01T05:35:09.274Z,97.33
2024-03-01T05:36:07.209Z,97.76
2024-03-01T05:37:04.014Z,98.55
2024-03-01T05:38:00.743Z,98.95
2024-03-01T05:38:57.491Z,98.62
2024-03-01T05:39:54.171Z,98.20
2024-03-01T05:40:52.658Z,98.00
2024-03-01T05:41:52.006Z,98.16
2024-03-01T05:42:48.666Z,98.54
2024-03-01T05:43:45.300Z,98.18
2024-03-01T05:44:41.885Z,97.88
2024-03-01T05:45:38.479Z,97.28
2024-03-01T05:46:35.104Z,96.67
2024-03-01T05:47:31.766Z,96.06
2024-03-01T05:48:28.477Z,96.95
2024-03-01T05:49:25.234Z,96.69
2024-03-01T05:50:21.978Z,96.80
2024-03-01T05:51:18.552Z,96.54
2024-03-01T05:52:16.361Z,96.25
2024-03-01T05:53:17.079Z,95.81
2024-03-01T05:54:14.646Z,95.97
2024-03-01T05:55:15.355Z,96.59
2024-03-01T05:56:19.237Z,96.63
2024-03-01T05:57:17.155Z,96.42
2024-03-01T05:58:13.864Z,96.65
2024-03-01T05:59:10.917Z,97.41
2024-03-01T06:00:26.489Z,96.55
2024-03-01T06:01:24.434Z,97.87
2024-03-01T06:02:22.581Z,98.53
2024-03-01T06:03:19.179Z,98.66
2024-03-01T06:04:16.038Z,98.28
2024-03-01T06:05:12.988Z,98.20
2024-03-01T06:06:10.847Z,98.09
2024-03-01T06:07:08.650Z,97.76
2024-03-01T06:08:05.809Z,98.19
2024-03-01T06:09:02.888Z,98.00
2024-03-01T06:09:59.583Z,97.33
2024-03-01T06:10:56.301Z,96.04
2024-03-01T06:11:52.988Z,95.92
2024-03-01T06:12:49.584Z,95.85
2024-03-01T06:13:46.432Z,95.48
2024-03-01T06:14:43.253Z,95.30
2024-03-01T06:15:40.269Z,94.72
2024-03-01T06:16:36.961Z,94.70
2024-03-01T06:17:34.074Z,94.77
2024-03-01T06:18:30.740Z,95.44
2024-03-01T06:19:27.683Z,94.96
2024-03-01T06:20:24.492Z,95.44
2024-03-01T06:21:22.006Z,94.61
2024-03-01T06:22:18.660Z,94.96
2024-03-01T06:23:15.662Z,94.79
2024-03-01T06:24:12.754Z,94.57
2024-03-01T06:25:09.918Z,94.33
2024-03-01T06:26:06.770Z,94.43
2024-03-01T06:27:04.148Z,93.63
2024-03-01T06:28:00.960Z,93.07
2024-03-01T06:28:57.743Z,94.28
2024-03-01T06:29:54.330Z,94.96
2024-03-01T06:30:51.161Z,95.17
2024-03-01T06:31:48.044Z,94.77
2024-03-01T06:32:44.897Z,94.62
2024-03-01T06:33:42.328Z,94.18
2024-03-01T06:34:39.602Z,94.24
2024-03-01T06:35:36.373Z,94.07
2024-03-01T06:36:33.057Z,93.03
2024-03-01T06:37:29.969Z,92.83
2024-03-01T06:38:26.629Z,93.64
2024-03-01T06:39:23.286Z,92.26
2024-03-01T06:40:20.425Z,92.50
2024-03-01T06:41:17.151Z,92.83
2024-03-01T06:42:13.769Z,93.11
2024-03-01T06:43:10.450Z,93.25
2024-03-01T06:44:07.550Z,94.03
2024-03-01T06:45:07.102Z,94.13
2024-03-01T06:46:08.612Z,93.94
2024-03-01T06:47:11.311Z,93.95
2024-03-01T06:48:17.496Z,93.59
2024-03-01T06:49:15.798Z,94.30
2024-03-01T06:50:12.506Z,94.34
2024-03-01T06:51:09.472Z,94.35
2024-03-01T06:52:06.421Z,94.53
2024-03-01T06:53:03.124Z,94.23
2024-03-01T06:53:59.813Z,93.28
2024-03-01T06:54:57.532Z,92.51
2024-03-01T06:55:56.337Z,92.89
2024-03-01T06:56:53.035Z,91.37
2024-03-01T06:57:49.790Z,91.17
2024-03-01T06:58:46.396Z,92.04
2024-03-01T06:59:43.017Z,92.99
2024-03-01T07:00:39.729Z,93.48
2024-03-01T07:01:36.852Z,94.35
2024-03-01T07:02:33.605Z,94.33
2024-03-01T07:03:30.185Z,93.26
2024-03-01T07:04:26.804Z,92.85
2024-03-01T07:05:23.605Z,93.01
2024-03-01T07:06:20.229Z,93.27
2024-03-01T07:07:19.651Z,93.86
2024-03-01T07:08:16.317Z,94.37
2024-03-01T07:09:13.021Z,94.27
2024-03-01T07:10:09.643Z,93.45
2024-03-01T07:11:06.461Z,93.21
2024-03-01T07:12:03.246Z,93.29
2024-03-01T07:12:59.909Z,94.13
2024-03-01T07:13:56.777Z,94.28
2024-03-01T07:14:53.377Z,94.18
2024-03-01T07:15:50.010Z,94.01
2024-03-01T07:16:46.625Z,93.75
2024-03-01T07:17:43.338Z,94.59
2024-03-01T07:18:40.086Z,94.55
2024-03-01T07:19:36.775Z,93.65
2024-03-01T07:20:33.413Z,92.56
2024-03-01T07:21:30.047Z,92.61
2024-03-01T07:22:27.297Z,93.18
2024-03-01T07:23:23.929Z,93.51
2024-03-01T07:24:20.609Z,94.22
2024-03-01T07:25:17.940Z,94.60
2024-03-01T07:26:14.632Z,93.73
2024-03-01T07:27:11.226Z,93.13
2024-03-01T07:28:07.907Z,92.71
2024-03-01T07:29:04.540Z,92.02
2024-03-01T07:30:02.195Z,91.46
2024-03-01T07:30:58.860Z,92.12
2024-03-01T07:31:55.882Z,92.73
2024-03-01T07:32:54.576Z,92.07
2024-03-01T07:33:51.227Z,92.61
2024-03-01T07:34:47.823Z,92.97
2024-03-01T07:35:44.505Z,93.06
2024-03-01T07:36:41.170Z,93.44
2024-03-01T07:37:38.066Z,93.31
2024-03-01T07:38:34.724Z,92.41
2024-03-01T07:39:31.378Z,91.21
2024-03-01T07:40:28.010Z,90.69
2024-03-01T07:41:24.797Z,90.73
2024-03-01T07:42:21.398Z,91.75
2024-03-01T07:43:18.264Z,92.27
2024-03-01T07:44:14.998Z,91.48
2024-03-01T07:45:11.776Z,91.98
2024-03-01T07:46:08.423Z,91.84
2024-03-01T07:47:05.385Z,92.33
2024-03-01T07:48:02.556Z,91.14
2024-03-01T07:48:59.212Z,91.21
2024-03-01T07:49:55.862Z,90.50
2024-03-01T07:50:52.563Z,90.09
2024-03-01T07:51:52.242Z,91.00
2024-03-01T07:52:48.902Z,91.95
2024-03-01T07:53:48.232Z,91.51
2024-03-01T07:54:44.986Z,91.28
2024-03-01T07:55:41.667Z,91.82
2024-03-01T07:56:38.673Z,91.66
2024-03-01T07:57:35.399Z,91.61
2024-03-01T07:58:35.196Z,91.98
2024-03-01T07:59:31.995Z,91.78
2024-03-01T08:00:28.775Z,91.56
2024-03-01T08:01:27.075Z,91.68
2024-03-01T08:02:23.793Z,91.00
2024-03-01T08:03:20.444Z,91.29
2024-03-01T08:04:17.203Z,91.78
2024-03-01T08:05:13.906Z,91.61
2024-03-01T08:06:10.597Z,92.50
2024-03-01T08:07:09.127Z,91.56
2024-03-01T08:08:09.148Z,92.30
2024-03-01T08:09:11.371Z,92.04
2024-03-01T08:10:14.857Z,91.84
2024-03-01T08:11:22.580Z,91.70
2024-03-01T08:12:21.989Z,92.62
2024-03-01T08:13:18.886Z,92.48
2024-03-01T08:14:31.099Z,92.39
2024-03-01T08:15:29.746Z,92.71
2024-03-01T08:16:27.228Z,92.79
2024-03-01T08:17:28.909Z,92.30
2024-03-01T08:18:26.288Z,92.17
2024-03-01T08:19:36.683Z,91.79
2024-03-01T08:21:07.008Z,92.98
2024-03-01T08:22:16.040Z,93.26
2024-03-01T08:23:13.253Z,93.80
2024-03-01T08:24:11.212Z,94.08
2024-03-01T08:25:10.771Z,93.75
2024-03-01T08:26:18.058Z,92.72
2024-03-01T08:27:18.078Z,93.30
2024-03-01T08:28:21.502Z,93.12
2024-03-01T08:29:18.876Z,92.91
2024-03-01T08:30:38.469Z,93.86
2024-03-01T08:31:36.930Z,93.22
2024-03-01T08:32:43.633Z,92.93
2024-03-01T08:33:41.308Z,93.41
2024-03-01T08:34:53.143Z,92.98
2024-03-01T08:35:50.276Z,93.04
2024-03-01T08:36:47.213Z,93.08
2024-03-01T08:37:44.000Z,92.42
2024-03-01T08:38:44.776Z,93.25
2024-03-01T08:39:41.959Z,92.77
2024-03-01T08:40:58.380Z,92.69
2024-03-01T08:41:57.221Z,91.92
2024-03-01T08:42:53.909Z,91.75
2024-03-01T08:43:50.958Z,91.99
2024-03-01T08:45:00.664Z,91.14
2024-03-01T08:46:02.772Z,91.79
2024-03-01T08:46:59.576Z,91.58
2024-03-01T08:48:07.679Z,91.34
2024-03-01T08:49:38.448Z,90.02
2024-03-01T08:50:42.546Z,89.42
2024-03-01T08:51:39.204Z,90.35
2024-03-01T08:52:39.431Z,90.11
2024-03-01T08:53:54.928Z,89.90
2024-03-01T08:54:57.058Z,90.30
2024-03-01T08:55:53.788Z,90.93
2024-03-01T08:57:06.659Z,90.58
2024-03-01T08:58:03.518Z,90.77
2024-03-01T08:59:01.925Z,91.34
2024-03-01T08:59:58.566Z,91.66
2024-03-01T09:00:56.955Z,91.46
2024-03-01T09:01:53.990Z,90.35
2024-03-01T09:02:50.934Z,90.64
2024-03-01T09:03:49.804Z,90.78
2024-03-01T09:04:46.599Z,89.16
2024-03-01T09:05:43.406Z,89.98
2024-03-01T09:06:41.205Z,90.23
2024-03-01T09:07:38.764Z,90.75
2024-03-01T09:08:37.427Z,90.69
2024-03-01T09:09:34.189Z,90.53
2024-03-01T09:10:35.707Z,90.38
2024-03-01T09:11:33.704Z,90.18
2024-03-01T09:12:30.381Z,90.39
2024-03-01T09:13:28.390Z,90.04
2024-03-01T09:14:30.809Z,91.00
2024-03-01T09:15:37.465Z,90.78
2024-03-01T09:16:34.147Z,90.47
2024-03-01T09:17:34.274Z,91.17
2024-03-01T09:18:44.930Z,92.19
2024-03-01T09:19:48.751Z,93.40
2024-03-01T09:20:48.220Z,92.88
2024-03-01T09:21:47.870Z,92.99
2024-03-01T09:22:44.668Z,93.02
2024-03-01T09:23:41.319Z,93.20
2024-03-01T09:24:39.976Z,93.42
2024-03-01T09:25:43.308Z,92.33
2024-03-01T09:26:40.596Z,91.67
2024-03-01T09:27:37.319Z,91.73
2024-03-01T09:28:34.618Z,91.60
2024-03-01T09:29:38.964Z,91.86
2024-03-01T09:30:35.719Z,91.68
2024-03-01T09:31:33.435Z,91.57
2024-03-01T09:32:34.145Z,91.44
2024-03-01T09:33:31.173Z,91.63
2024-03-01T09:34:33.669Z,90.84
2024-03-01T09:35:31.222Z,90.78
2024-03-01T09:36:27.956Z,91.30
2024-03-01T09:37:24.799Z,90.94
2024-03-01T09:38:26.535Z,91.21
2024-03-01T09:39:23.237Z,90.79
2024-03-01T09:40:34.935Z,90.64
2024-03-01T09:41:45.105Z,90.37
2024-03-01T09:42:56.683Z,91.02
2024-03-01T09:44:13.389Z,90.51
2024-03-01T09:45:10.107Z,90.43
2024-03-01T09:46:42.284Z,89.20
2024-03-01T09:48:06.565Z,89.47
2024-03-01T09:49:45.605Z,89.74
2024-03-01T09:51:05.694Z,89.95
2024-03-01T09:52:21.288Z,89.76
2024-03-01T09:53:27.157Z,89.60
2024-03-01T09:54:31.464Z,89.76
2024-03-01T09:55:42.679Z,89.63
2024-03-01T09:56:49.568Z,89.35
2024-03-01T09:58:04.356Z,88.51
2024-03-01T09:59:07.039Z,87.92
2024-03-01T10:00:07.304Z,87.85
2024-03-01T10:01:27.875Z,87.80
2024-03-01T10:02:34.427Z,86.39
2024-03-01T10:03:34.357Z,87.04
2024-03-01T10:04:41.742Z,87.01
2024-03-01T10:05:55.442Z,86.57
2024-03-01T10:07:27.394Z,87.01
2024-03-01T10:08:36.478Z,86.25
2024-03-01T10:10:02.079Z,86.94
2024-03-01T10:11:13.376Z,87.26
2024-03-01T10:12:28.701Z,86.88
2024-03-01T10:13:36.887Z,86.68
2024-03-01T10:14:52.444Z,86.00
2024-03-01T10:16:14.721Z,86.11
2024-03-01T10:17:34.489Z,85.62
2024-03-01T10:18:47.766Z,85.79
2024-03-01T10:20:07.358Z,86.17
2024-03-01T10:21:30.328Z,85.73
2024-03-01T10:22:43.726Z,86.46
2024-03-01T10:23:49.291Z,86.37
2024-03-01T10:25:12.409Z,86.04
2024-03-01T10:26:31.319Z,85.73
2024-03-01T10:27:31.219Z,85.79
2024-03-01T10:28:39.782Z,85.03
2024-03-01T10:29:47.738Z,85.13
2024-03-01T10:30:58.156Z,84.90
2024-03-01T10:31:54.720Z,85.57
2024-03-01T10:33:21.488Z,83.96
2024-03-01T10:34:30.326Z,84.79
2024-03-01T10:35:39.189Z,84.34
2024-03-01T10:36:49.987Z,84.41
2024-03-01T10:38:09.038Z,84.80
2024-03-01T10:39:27.388Z,83.34
2024-03-01T10:40:26.200Z,84.80
2024-03-01T10:41:46.335Z,84.07
2024-03-01T10:42:47.190Z,84.16
2024-03-01T10:43:53.134Z,83.85
2024-03-01T10:45:07.190Z,84.43
2024-03-01T10:46:13.613Z,84.17
2024-03-01T10:47:23.117Z,84.93
2024-03-01T10:48:19.838Z,85.18
2024-03-01T10:49:47.206Z,84.71
2024-03-01T10:50:56.631Z,84.14
2024-03-01T10:51:58.449Z,83.94
2024-03-01T10:53:03.475Z,84.61
2024-03-01T10:54:05.371Z,84.49
2024-03-01T10:55:06.848Z,84.37
2024-03-01T10:56:07.235Z,84.29
2024-03-01T10:57:08.626Z,84.53
2024-03-01T10:58:08.019Z,84.01
2024-03-01T10:59:15.911Z,83.84
2024-03-01T11:00:14.410Z,83.66
2024-03-01T11:01:29.103Z,84.40
2024-03-01T11:02:30.959Z,83.87
2024-03-01T11:03:27.568Z,83.98
2024-03-01T11:04:34.530Z,84.00
2024-03-01T11:05:53.469Z,84.01
2024-03-01T11:07:10.318Z,82.76
2024-03-01T11:08:22.298Z,83.33
2024-03-01T11:09:31.007Z,84.01
2024-03-01T11:10:40.960Z,83.61
2024-03-01T11:11:52.148Z,83.38
2024-03-01T11:13:03.270Z,83.84
2024-03-01T11:14:03.665Z,83.86
2024-03-01T11:15:22.271Z,83.53
2024-03-01T11:16:24.791Z,82.75
2024-03-01T11:17:26.643Z,83.43
2024-03-01T11:18:31.861Z,83.05
2024-03-01T11:19:33.246Z,81.83
2024-03-01T11:20:35.893Z,81.48
2024-03-01T11:21:33.837Z,81.92
2024-03-01T11:22:32.886Z,82.05
2024-03-01T11:23:41.068Z,82.90
2024-03-01T11:24:44.665Z,81.79
2024-03-01T11:26:22.284Z,81.16
2024-03-01T11:27:27.158Z,82.35
2024-03-01T11:28:26.004Z,82.36
2024-03-01T11:29:54.427Z,82.31
2024-03-01T11:30:55.557Z,82.63
2024-03-01T11:32:07.584Z,82.25
2024-03-01T11:33:05.191Z,81.38
2024-03-01T11:34:06.697Z,81.84
2024-03-01T11:35:23.902Z,81.45
2024-03-01T11:36:23.293Z,81.32
2024-03-01T11:37:26.044Z,81.67
2024-03-01T11:38:41.015Z,79.97
2024-03-01T11:39:50.303Z,79.29
2024-03-01T11:40:53.159Z,78.47
2024-03-01T11:42:27.817Z,79.49
2024-03-01T11:43:59.685Z,80.17
2024-03-01T11:45:22.739Z,80.04
2024-03-01T11:46:22.982Z,80.12
2024-03-01T11:47:24.111Z,79.78
2024-03-01T11:48:39.298Z,79.05
2024-03-01T11:49:54.838Z,77.90
2024-03-01T11:50:51.454Z,79.08
2024-03-01T11:52:06.548Z,80.22
2024-03-01T11:53:14.799Z,79.50
2024-03-01T11:54:48.991Z,79.51
2024-03-01T11:56:16.289Z,80.29
2024-03-01T11:57:25.066Z,79.66
2024-03-01T11:58:37.683Z,77.48
2024-03-01T12:00:11.194Z,78.41
2024-03-01T12:01:32.328Z,78.93
2024-03-01T12:03:26.130Z,80.42
2024-03-01T12:04:48.993Z,80.18
2024-03-01T12:06:13.077Z,80.57
2024-03-01T12:07:45.592Z,79.40
2024-03-01T12:09:10.088Z,79.09
2024-03-01T12:10:09.511Z,78.48
2024-03-01T12:11:29.858Z,79.32
2024-03-01T12:12:59.442Z,80.32
2024-03-01T12:13:58.955Z,79.58
2024-03-01T12:15:10.229Z,79.13
2024-03-01T12:16:13.799Z,78.55
2024-03-01T12:17:20.284Z,79.64
2024-03-01T12:18:22.808Z,80.67
2024-03-01T12:19:39.225Z,79.51
2024-03-01T12:20:41.534Z,80.73
2024-03-01T12:21:38.618Z,80.25
2024-03-01T12:22:50.315Z,79.78
2024-03-01T12:24:08.613Z,79.18
2024-03-01T12:25:05.838Z,77.96
2024-03-01T12:26:03.582Z,76.68
2024-03-01T12:27:04.432Z,76.43
2024-03-01T12:28:33.541Z,77.65
2024-03-01T12:29:54.145Z,78.39
2024-03-01T12:31:03.226Z,78.40
2024-03-01T12:32:37.140Z,78.17
2024-03-01T12:33:40.825Z,78.27
2024-03-01T12:34:49.399Z,78.02
2024-03-01T12:36:07.660Z,77.69
2024-03-01T12:37:08.130Z,77.37
2024-03-01T12:38:30.696Z,76.85
2024-03-01T12:39:28.988Z,78.27
2024-03-01T12:40:32.731Z,77.89
2024-03-01T12:42:07.137Z,77.03
2024-03-01T12:43:31.847Z,77.12
2024-03-01T12:44:45.579Z,76.52
2024-03-01T12:46:04.461Z,75.23
2024-03-01T12:47:23.235Z,74.59
2024-03-01T12:48:45.660Z,75.51
2024-03-01T12:50:16.831Z,76.38
2024-03-01T12:51:17.439Z,74.73
2024-03-01T12:52:19.692Z,74.58
2024-03-01T12:53:34.803Z,74.32
2024-03-01T12:54:45.531Z,75.13
2024-03-01T12:56:07.272Z,75.17
2024-03-01T12:57:17.625Z,75.75
2024-03-01T12:58:30.263Z,75.35
2024-03-01T12:59:33.003Z,75.01
2024-03-01T13:00:36.971Z,75.27
2024-03-01T13:01:55.288Z,76.54
2024-03-01T13:02:51.911Z,76.34
2024-03-01T13:04:30.666Z,75.46
2024-03-01T13:05:28.007Z,76.29
2024-03-01T13:06:26.026Z,75.23